Time;durP1;ratioP1;P1;durP2;ratioP2;P2;SDS_P1;SDS_P2;PMS_P1;PMS_P2;Temp;Humidity;BMP_temperature;BMP_pressure;BME280_temperature;BME280_humidity;BME280_pressure;Samples;Min_cycle;Max_cycle;Signal;HPM_P1;HPM_P2
2022/10/14 00:00:15;;;;;;;13.88;7.60;;;11.10;99.90;;;;;;4994250;28;20038;-46
2022/10/14 00:02:40;;;;;;;12.15;7.90;;;11.10;99.90;;;;;;4993974;28;20027;-45
2022/10/14 00:05:08;;;;;;;12.45;7.70;;;11.10;99.90;;;;;;4993585;28;20481;-47
2022/10/14 00:07:34;;;;;;;11.45;7.57;;;11.10;99.90;;;;;;4993878;28;20407;-46
2022/10/14 00:09:59;;;;;;;11.50;7.22;;;11.10;99.90;;;;;;4993989;28;20018;-45
2022/10/14 00:12:25;;;;;;;11.98;7.28;;;11.10;99.90;;;;;;4993964;28;20507;-49
2022/10/14 00:14:53;;;;;;;13.60;7.70;;;11.00;99.90;;;;;;4993739;28;20033;-44
2022/10/14 00:17:18;;;;;;;12.07;6.68;;;11.00;99.90;;;;;;4993783;28;20050;-46
2022/10/14 00:19:44;;;;;;;7.88;5.85;;;11.00;99.90;;;;;;4992576;28;20032;-49
2022/10/14 00:22:10;;;;;;;9.75;5.97;;;11.00;99.90;;;;;;4993911;28;20051;-51
2022/10/14 00:24:35;;;;;;;9.82;6.78;;;11.10;99.90;;;;;;4993789;28;20154;-54
2022/10/14 00:27:01;;;;;;;11.63;6.32;;;11.10;99.90;;;;;;4993448;28;20089;-49
2022/10/14 00:29:26;;;;;;;7.68;5.45;;;11.10;99.90;;;;;;4993579;28;20520;-47
2022/10/14 00:31:52;;;;;;;8.13;4.68;;;11.00;99.90;;;;;;4993399;28;20085;-52
2022/10/14 00:34:18;;;;;;;6.75;4.35;;;10.90;99.90;;;;;;4993770;28;20030;-53
2022/10/14 00:36:43;;;;;;;6.97;4.45;;;10.90;99.90;;;;;;4993568;28;20452;-53
2022/10/14 00:39:10;;;;;;;8.30;4.80;;;10.90;99.90;;;;;;4993379;28;20023;-50
2022/10/14 00:41:36;;;;;;;7.75;4.85;;;10.90;99.90;;;;;;4993547;28;20030;-49
2022/10/14 00:44:03;;;;;;;6.18;4.10;;;10.90;99.90;;;;;;4993270;28;20113;-46
2022/10/14 00:46:33;;;;;;;9.43;4.88;;;10.90;99.90;;;;;;4993308;28;20041;-48
2022/10/14 00:49:04;;;;;;;8.48;4.88;;;10.90;99.90;;;;;;4993265;28;20469;-47
2022/10/14 00:51:30;;;;;;;8.40;4.38;;;10.90;99.90;;;;;;4993425;28;20026;-45
2022/10/14 00:53:56;;;;;;;8.43;5.03;;;10.90;99.90;;;;;;4993256;28;20504;-54
2022/10/14 00:56:25;;;;;;;8.05;4.60;;;10.90;99.90;;;;;;4993284;28;20057;-53
2022/10/14 00:58:51;;;;;;;;;;;10.90;99.90;;;;;;4993642;28;20031;-47
2022/10/14 01:01:17;;;;;;;8.13;5.43;;;10.90;99.90;;;;;;4993184;28;20070;-51
2022/10/14 01:03:42;;;;;;;8.48;5.10;;;10.90;99.90;;;;;;4993147;28;20577;-48
2022/10/14 01:06:39;;;;;;;11.32;5.70;;;10.90;99.90;;;;;;4992804;28;20026;-46
2022/10/14 01:09:30;;;;;;;10.30;5.28;;;10.80;99.90;;;;;;4992788;28;20038;-50
2022/10/14 01:12:14;;;;;;;10.23;5.45;;;10.70;99.90;;;;;;4982289;28;20038;-48
2022/10/14 01:15:03;;;;;;;7.07;4.60;;;10.60;99.90;;;;;;4992661;28;20504;-45
2022/10/14 01:17:48;;;;;;;11.38;5.20;;;10.60;99.90;;;;;;4991691;28;20046;-45
2022/10/14 01:20:30;;;;;;;9.57;5.05;;;10.70;99.90;;;;;;4992565;28;20457;-47
2022/10/14 01:23:15;;;;;;;11.50;5.43;;;10.80;99.90;;;;;;4650434;22;20136;-46
2022/10/14 01:25:54;;;;;;;9.52;5.90;;;10.90;99.90;;;;;;5030687;28;20047;-49
2022/10/14 01:28:45;;;;;;;11.95;5.78;;;10.90;99.90;;;;;;5030113;28;20036;-49
2022/10/14 01:31:27;;;;;;;11.07;5.70;;;11.00;99.90;;;;;;5031723;28;20033;-53
2022/10/14 01:33:57;;;;;;;11.05;6.25;;;11.00;99.90;;;;;;5031975;28;20100;-51
2022/10/14 01:36:30;;;;;;;12.05;6.07;;;11.10;99.90;;;;;;5030915;28;20021;-48
2022/10/14 01:39:17;;;;;;;13.27;6.25;;;11.10;99.90;;;;;;5031239;28;20642;-47
2022/10/14 01:41:47;;;;;;;15.00;6.43;;;11.10;99.90;;;;;;5031165;28;20025;-50
2022/10/14 01:44:17;;;;;;;14.43;6.47;;;11.20;99.90;;;;;;5031363;28;20025;-57
2022/10/14 01:46:48;;;;;;;12.95;6.15;;;11.20;99.90;;;;;;5030975;28;20486;-52
2022/10/14 01:49:23;;;;;;;10.90;7.03;;;11.20;99.90;;;;;;5031084;28;20113;-49
2022/10/14 01:51:53;;;;;;;29.90;7.65;;;11.30;99.90;;;;;;5031266;28;20028;-48
2022/10/14 01:54:24;;;;;;;15.68;6.28;;;11.30;99.90;;;;;;5031227;28;20035;-43
2022/10/14 01:56:53;;;;;;;13.13;5.70;;;11.20;99.90;;;;;;5031345;28;20060;-48
2022/10/14 01:59:21;;;;;;;24.20;5.65;;;11.20;99.90;;;;;;5031205;28;20033;-46
2022/10/14 02:01:47;;;;;;;13.77;5.82;;;11.20;99.90;;;;;;5031126;28;20025;-45
2022/10/14 02:04:20;;;;;;;15.70;6.13;;;11.10;99.90;;;;;;5030933;28;20037;-47
2022/10/14 02:07:03;;;;;;;14.52;6.60;;;11.10;99.90;;;;;;5030851;28;20121;-44
2022/10/14 02:10:04;;;;;;;13.10;5.40;;;11.20;99.90;;;;;;5030785;28;20021;-49
2022/10/14 02:12:41;;;;;;;11.65;5.28;;;11.20;99.90;;;;;;5030767;28;20440;-45
2022/10/14 02:15:22;;;;;;;9.40;5.95;;;11.20;99.90;;;;;;5030896;28;20029;-50
2022/10/14 02:18:13;;;;;;;7.85;5.53;;;11.30;99.90;;;;;;5030805;28;20018;-48
2022/10/14 02:20:53;;;;;;;14.18;5.65;;;11.20;99.90;;;;;;5031107;28;20029;-54
2022/10/14 02:23:30;;;;;;;10.23;5.50;;;11.20;99.90;;;;;;5030505;28;20041;-46
2022/10/14 02:25:58;;;;;;;9.32;5.53;;;11.20;99.90;;;;;;5030879;28;20036;-46
2022/10/14 02:28:28;;;;;;;10.45;6.05;;;11.20;99.90;;;;;;5030342;28;20037;-48
2022/10/14 02:30:58;;;;;;;20.60;7.20;;;11.20;99.90;;;;;;5030755;28;20026;-50
2022/10/14 02:33:33;;;;;;;13.20;6.18;;;11.20;99.90;;;;;;5030569;28;20026;-55
2022/10/14 02:36:02;;;;;;;11.48;6.13;;;11.20;99.90;;;;;;5030909;28;20032;-53
2022/10/14 02:38:29;;;;;;;15.38;5.82;;;11.20;99.90;;;;;;5030414;28;20013;-52
2022/10/14 02:40:57;;;;;;;14.73;5.93;;;11.20;99.90;;;;;;5029097;28;20022;-48
2022/10/14 02:43:23;;;;;;;10.18;5.25;;;11.10;99.90;;;;;;5030455;28;20411;-51
2022/10/14 02:45:48;;;;;;;13.23;5.80;;;11.00;99.90;;;;;;5029946;28;20116;-53
2022/10/14 02:48:14;;;;;;;16.15;5.65;;;11.00;99.90;;;;;;5030434;28;20045;-49
2022/10/14 02:50:41;;;;;;;15.57;6.35;;;11.00;99.90;;;;;;5030164;28;20472;-53
2022/10/14 02:53:07;;;;;;;16.10;7.55;;;11.00;99.90;;;;;;5030391;28;20580;-46
2022/10/14 02:55:32;;;;;;;10.90;6.63;;;11.10;99.90;;;;;;5012642;28;20021;-51
2022/10/14 02:57:58;;;;;;;12.52;7.60;;;11.10;99.90;;;;;;5030259;28;20029;-52
2022/10/14 03:00:23;;;;;;;10.80;6.03;;;11.10;99.90;;;;;;5030408;28;20028;-51
2022/10/14 03:02:49;;;;;;;12.27;6.85;;;11.20;99.90;;;;;;5030480;28;20384;-49
2022/10/14 03:05:15;;;;;;;11.73;6.97;;;11.20;99.90;;;;;;5030421;28;20108;-45
2022/10/14 03:07:40;;;;;;;12.82;6.43;;;11.20;99.90;;;;;;5030472;28;20475;-45
2022/10/14 03:10:06;;;;;;;12.93;5.90;;;11.20;99.90;;;;;;5030640;28;20020;-51
2022/10/14 03:12:32;;;;;;;10.40;5.45;;;11.10;99.90;;;;;;5030507;28;20034;-53
2022/10/14 03:14:57;;;;;;;19.63;6.18;;;11.10;99.90;;;;;;5030296;28;20013;-45
2022/10/14 03:17:23;;;;;;;9.02;5.68;;;11.00;99.90;;;;;;5030428;28;20364;-50
2022/10/14 03:19:48;;;;;;;9.40;6.13;;;11.00;99.90;;;;;;5030204;28;20028;-50
2022/10/14 03:22:14;;;;;;;11.30;6.68;;;11.00;99.90;;;;;;5030272;28;20032;-54
2022/10/14 03:24:40;;;;;;;18.92;6.40;;;11.00;99.90;;;;;;5030074;28;20049;-48
2022/10/14 03:27:05;;;;;;;14.25;6.47;;;11.00;99.90;;;;;;5030379;28;20074;-45
2022/10/14 03:29:31;;;;;;;17.52;5.70;;;11.00;99.90;;;;;;5030077;28;20033;-47
2022/10/14 03:31:56;;;;;;;8.00;5.22;;;10.90;99.90;;;;;;5030263;28;20025;-50
2022/10/14 03:34:22;;;;;;;18.80;5.78;;;10.80;99.90;;;;;;5030363;28;20083;-46
2022/10/14 03:36:47;;;;;;;12.90;5.38;;;10.80;99.90;;;;;;5029440;28;20018;-47
2022/10/14 03:39:13;;;;;;;16.67;5.78;;;10.80;99.90;;;;;;5030139;28;20438;-53
2022/10/14 03:41:39;;;;;;;7.85;4.63;;;10.80;99.90;;;;;;5032370;28;20033;-46
2022/10/14 03:44:04;;;;;;;14.35;5.32;;;10.80;99.90;;;;;;5033288;28;20028;-48
2022/10/14 03:46:30;;;;;;;13.52;5.25;;;10.70;99.90;;;;;;5033555;28;20493;-47
2022/10/14 03:48:56;;;;;;;12.02;5.05;;;10.70;99.90;;;;;;5033118;28;20460;-52
2022/10/14 03:51:22;;;;;;;10.15;5.10;;;10.70;99.90;;;;;;5033456;28;20033;-47
2022/10/14 03:53:48;;;;;;;11.07;5.63;;;10.70;99.90;;;;;;5033579;28;20289;-53
2022/10/14 03:56:14;;;;;;;10.23;5.35;;;10.60;99.90;;;;;;5033716;28;20100;-45
2022/10/14 03:58:39;;;;;;;17.45;6.03;;;10.60;99.90;;;;;;5033243;28;20029;-48
2022/10/14 04:01:05;;;;;;;17.30;5.60;;;10.60;99.90;;;;;;5033756;28;20017;-47
2022/10/14 04:03:30;;;;;;;23.90;5.25;;;10.50;99.90;;;;;;5033477;28;20025;-45
2022/10/14 04:05:56;;;;;;;9.18;5.15;;;10.50;99.90;;;;;;5033471;28;20021;-49
2022/10/14 04:08:22;;;;;;;6.75;4.25;;;10.50;99.90;;;;;;5033175;28;20423;-50
2022/10/14 04:10:51;;;;;;;9.20;4.90;;;10.50;99.90;;;;;;5032786;28;20100;-50
2022/10/14 04:13:17;;;;;;;11.63;5.18;;;10.60;99.90;;;;;;5032793;28;20550;-47
2022/10/14 04:15:43;;;;;;;11.82;5.40;;;10.60;99.90;;;;;;5032097;28;20045;-47
2022/10/14 04:18:08;;;;;;;7.20;4.75;;;10.60;99.90;;;;;;5032647;28;20029;-45
2022/10/14 04:20:34;;;;;;;8.75;5.18;;;10.70;99.90;;;;;;5032437;28;20083;-52
2022/10/14 04:22:59;;;;;;;10.88;5.85;;;10.80;99.90;;;;;;5032160;28;20039;-47
2022/10/14 04:25:25;;;;;;;10.13;6.00;;;10.80;99.90;;;;;;5032832;28;20029;-46
2022/10/14 04:27:51;;;;;;;14.13;5.82;;;10.80;99.90;;;;;;5032460;28;20044;-51
2022/10/14 04:30:16;;;;;;;13.65;6.20;;;10.80;99.90;;;;;;5032261;28;20033;-45
2022/10/14 04:32:42;;;;;;;11.98;5.97;;;10.70;99.90;;;;;;5032728;28;20034;-47
2022/10/14 04:35:08;;;;;;;21.13;5.85;;;10.70;99.90;;;;;;5033724;28;20452;-46
2022/10/14 04:37:34;;;;;;;10.05;5.88;;;10.70;99.90;;;;;;5033838;28;20060;-45
2022/10/14 04:40:00;;;;;;;9.68;5.85;;;10.70;99.90;;;;;;5032687;28;20437;-46
2022/10/14 04:42:26;;;;;;;11.07;6.50;;;10.80;99.90;;;;;;5032723;28;20511;-46
2022/10/14 04:44:51;;;;;;;13.13;5.82;;;10.70;99.90;;;;;;5031513;28;20499;-46
2022/10/14 04:47:17;;;;;;;18.15;6.05;;;10.70;99.90;;;;;;5014650;28;20044;-46
2022/10/14 04:49:42;;;;;;;18.15;5.68;;;10.50;99.90;;;;;;5032624;28;20036;-49
2022/10/14 04:52:08;;;;;;;17.30;5.93;;;10.50;99.90;;;;;;5031872;28;20156;-45
2022/10/14 04:54:34;;;;;;;7.57;4.80;;;10.50;99.90;;;;;;5026929;28;20489;-45
2022/10/14 04:56:59;;;;;;;9.77;5.28;;;10.40;99.90;;;;;;5031622;28;20029;-46
2022/10/14 04:59:25;;;;;;;8.82;5.47;;;10.50;99.90;;;;;;5032412;28;20503;-46
2022/10/14 05:01:50;;;;;;;9.07;5.55;;;10.50;99.90;;;;;;5032519;28;20041;-45
2022/10/14 05:04:16;;;;;;;8.15;5.40;;;10.50;99.90;;;;;;5030929;28;20471;-46
2022/10/14 05:06:42;;;;;;;9.65;5.63;;;10.50;99.90;;;;;;5032272;28;20040;-46
2022/10/14 05:09:08;;;;;;;10.40;5.95;;;10.60;99.90;;;;;;5032368;28;20033;-46
2022/10/14 05:11:33;;;;;;;11.25;5.80;;;10.60;99.90;;;;;;5032104;28;20022;-47
2022/10/14 05:13:59;;;;;;;10.35;5.78;;;10.60;99.90;;;;;;5032060;28;20526;-45
2022/10/14 05:16:25;;;;;;;12.05;5.43;;;10.70;99.90;;;;;;5030724;28;20022;-53
2022/10/14 05:18:51;;;;;;;9.68;6.00;;;10.70;99.90;;;;;;5029908;28;20029;-50
2022/10/14 05:21:17;;;;;;;11.45;5.50;;;10.70;99.90;;;;;;5029942;28;20029;-48
2022/10/14 05:23:43;;;;;;;9.85;5.68;;;10.70;99.90;;;;;;5029599;28;20045;-49
2022/10/14 05:26:09;;;;;;;10.50;5.63;;;10.70;99.90;;;;;;5011935;28;20029;-51
2022/10/14 05:28:37;;;;;;;9.20;5.95;;;10.60;99.90;;;;;;5029930;28;20117;-47
2022/10/14 05:31:03;;;;;;;9.43;6.20;;;10.60;99.90;;;;;;5030701;28;20013;-50
2022/10/14 05:33:29;;;;;;;9.88;6.57;;;10.60;99.90;;;;;;5032109;28;20037;-46
2022/10/14 05:35:54;;;;;;;10.52;6.35;;;10.60;99.90;;;;;;5031342;28;20017;-45
2022/10/14 05:38:20;;;;;;;12.57;6.25;;;10.60;99.90;;;;;;5031459;28;20036;-48
2022/10/14 05:40:56;;;;;;;16.65;6.28;;;10.60;99.90;;;;;;5031411;28;20028;-51
2022/10/14 05:43:25;;;;;;;9.02;5.55;;;10.60;99.90;;;;;;5010510;28;20017;-49
2022/10/14 05:45:51;;;;;;;11.10;6.38;;;10.60;99.90;;;;;;5029181;28;20025;-46
2022/10/14 05:48:18;;;;;;;10.63;5.97;;;10.60;99.90;;;;;;5031371;28;20041;-47
2022/10/14 05:50:44;;;;;;;10.85;6.15;;;10.70;99.90;;;;;;5031489;28;20096;-47
2022/10/14 05:53:11;;;;;;;11.05;6.57;;;10.60;99.90;;;;;;5031347;28;20618;-46
2022/10/14 05:55:36;;;;;;;9.68;6.20;;;10.60;99.90;;;;;;5031166;28;20392;-45
2022/10/14 05:58:02;;;;;;;11.20;6.90;;;10.70;99.90;;;;;;5031311;28;20036;-50
2022/10/14 06:00:27;;;;;;;12.82;6.60;;;10.60;99.90;;;;;;5031269;28;20025;-47
2022/10/14 06:02:55;;;;;;;13.40;6.05;;;10.60;99.90;;;;;;5030868;28;20033;-47
2022/10/14 06:05:21;;;;;;;11.77;7.63;;;10.60;99.90;;;;;;5031199;28;20029;-48
2022/10/14 06:07:46;;;;;;;11.90;6.93;;;10.60;99.90;;;;;;5030764;28;20392;-47
2022/10/14 06:10:12;;;;;;;11.50;6.35;;;10.60;99.90;;;;;;5031283;28;20108;-46
2022/10/14 06:12:38;;;;;;;19.63;7.50;;;10.60;99.90;;;;;;5030467;28;20506;-47
2022/10/14 06:15:04;;;;;;;13.55;7.10;;;10.60;99.90;;;;;;5031138;28;20030;-47
2022/10/14 06:17:29;;;;;;;11.60;6.68;;;10.60;99.90;;;;;;5031187;28;20025;-48
2022/10/14 06:19:55;;;;;;;13.75;6.95;;;10.60;99.90;;;;;;5030851;28;20499;-48
2022/10/14 06:22:20;;;;;;;12.02;6.32;;;10.60;99.90;;;;;;5030859;28;20040;-50
2022/10/14 06:24:46;;;;;;;9.90;6.47;;;10.60;99.90;;;;;;5030772;28;20043;-52
2022/10/14 06:27:12;;;;;;;14.77;6.97;;;10.60;99.90;;;;;;5031036;28;20084;-48
2022/10/14 06:29:37;;;;;;;8.80;5.65;;;10.60;99.90;;;;;;5030794;28;20373;-49
2022/10/14 06:32:04;;;;;;;14.25;6.35;;;10.60;99.90;;;;;;5030862;28;20472;-51
2022/10/14 06:34:30;;;;;;;11.70;6.43;;;10.60;99.90;;;;;;5030359;28;20025;-46
2022/10/14 06:36:55;;;;;;;11.00;6.55;;;10.60;99.90;;;;;;5029642;28;20040;-49
2022/10/14 06:39:21;;;;;;;22.33;7.82;;;10.60;99.90;;;;;;5030385;28;20487;-51
2022/10/14 06:41:47;;;;;;;9.52;5.65;;;10.50;99.90;;;;;;5030225;28;20029;-47
2022/10/14 06:44:14;;;;;;;10.48;6.25;;;10.50;99.90;;;;;;5030718;28;20029;-45
2022/10/14 06:46:40;;;;;;;9.32;5.88;;;10.50;99.90;;;;;;5029638;28;20052;-51
2022/10/14 06:49:06;;;;;;;10.18;6.10;;;10.50;99.90;;;;;;5030394;28;20112;-50
2022/10/14 06:51:32;;;;;;;12.57;5.82;;;10.50;99.90;;;;;;5030296;28;20022;-48
2022/10/14 06:53:57;;;;;;;9.63;5.85;;;10.50;99.90;;;;;;5030609;28;20029;-53
2022/10/14 06:56:23;;;;;;;10.85;6.15;;;10.50;99.90;;;;;;5012752;28;20532;-48
2022/10/14 06:58:53;;;;;;;10.63;6.20;;;10.50;99.90;;;;;;5030449;28;20021;-50
2022/10/14 07:01:19;;;;;;;10.95;6.35;;;10.60;99.90;;;;;;5030078;28;20391;-51
2022/10/14 07:03:45;;;;;;;10.93;5.97;;;10.60;99.90;;;;;;5029499;28;20021;-46
2022/10/14 07:06:10;;;;;;;11.48;5.57;;;10.70;99.90;;;;;;5029764;28;20037;-50
2022/10/14 07:08:36;;;;;;;9.73;5.20;;;10.70;99.90;;;;;;5029727;28;20071;-45
2022/10/14 07:11:02;;;;;;;14.23;6.10;;;10.80;99.90;;;;;;5029518;28;20041;-45
2022/10/14 07:13:28;;;;;;;13.90;6.60;;;10.90;99.90;;;;;;5030100;28;20116;-50
2022/10/14 07:15:54;;;;;;;12.88;6.65;;;10.90;99.90;;;;;;5031442;28;20089;-48
2022/10/14 07:18:19;;;;;;;11.50;5.78;;;10.90;99.90;;;;;;5033814;28;20117;-46
2022/10/14 07:20:45;;;;;;;9.57;5.53;;;11.00;99.90;;;;;;5033599;28;20105;-49
2022/10/14 07:23:11;;;;;;;10.00;5.78;;;11.00;99.90;;;;;;5033709;28;20403;-49
2022/10/14 07:25:37;;;;;;;10.13;5.82;;;11.00;99.90;;;;;;5033704;28;20025;-45
2022/10/14 07:28:03;;;;;;;10.65;6.22;;;11.10;99.90;;;;;;5029110;28;20045;-46
2022/10/14 07:30:29;;;;;;;13.63;7.28;;;11.10;99.90;;;;;;5028932;28;20031;-50
2022/10/14 07:32:54;;;;;;;9.80;6.25;;;11.20;99.90;;;;;;5033979;28;20491;-48
2022/10/14 07:35:20;;;;;;;10.23;5.82;;;11.20;99.90;;;;;;5034056;28;20028;-46
2022/10/14 07:37:49;;;;;;;15.30;8.48;;;11.30;99.90;;;;;;5034002;28;20026;-48
2022/10/14 07:40:14;;;;;;;15.70;8.73;;;11.30;99.90;;;;;;5024919;28;20118;-46
2022/10/14 07:42:40;;;;;;;15.48;8.98;;;11.40;99.90;;;;;;5029250;28;20108;-46
2022/10/14 07:45:06;;;;;;;16.45;9.75;;;11.60;99.90;;;;;;5033554;28;20013;-52
2022/10/14 07:47:32;;;;;;;17.38;9.60;;;11.70;99.90;;;;;;5033505;28;20090;-46
2022/10/14 07:50:01;;;;;;;17.25;9.32;;;11.80;99.90;;;;;;5033661;28;20014;-45
2022/10/14 07:52:27;;;;;;;14.73;8.45;;;11.80;99.90;;;;;;5032229;28;20531;-44
2022/10/14 07:54:52;;;;;;;14.60;9.88;;;11.90;99.90;;;;;;5033488;28;20171;-51
2022/10/14 07:57:18;;;;;;;18.40;9.25;;;12.00;99.90;;;;;;5032700;28;20037;-47
2022/10/14 07:59:45;;;;;;;16.48;10.32;;;12.10;99.90;;;;;;5033356;28;20078;-45
2022/10/14 08:02:11;;;;;;;16.60;10.15;;;12.30;99.90;;;;;;5029090;28;20527;-50
2022/10/14 08:04:37;;;;;;;20.35;11.13;;;12.30;99.90;;;;;;5033262;28;20157;-47
2022/10/14 08:07:03;;;;;;;19.13;11.20;;;12.40;99.90;;;;;;5033241;28;20048;-55
2022/10/14 08:09:29;;;;;;;20.83;12.02;;;12.60;99.90;;;;;;5032775;28;20420;-52
2022/10/14 08:11:54;;;;;;;18.23;10.93;;;12.60;99.90;;;;;;5033198;28;20036;-55
2022/10/14 08:14:20;;;;;;;17.80;10.55;;;12.60;99.90;;;;;;5033122;28;20041;-53
2022/10/14 08:16:46;;;;;;;18.98;10.45;;;12.70;99.90;;;;;;5013413;28;20028;-44
2022/10/14 08:19:12;;;;;;;16.67;9.27;;;12.60;99.90;;;;;;5011560;28;20030;-51
2022/10/14 08:21:38;;;;;;;15.27;9.52;;;12.50;99.90;;;;;;5031432;28;20439;-53
2022/10/14 08:24:04;;;;;;;17.05;9.73;;;12.40;99.90;;;;;;5031076;28;20400;-52
2022/10/14 08:26:39;;;;;;;17.75;9.73;;;12.50;99.90;;;;;;5030603;28;20576;-55
2022/10/14 08:29:09;;;;;;;14.93;9.15;;;12.40;99.90;;;;;;5032670;28;20029;-50
2022/10/14 08:31:35;;;;;;;12.85;7.43;;;12.40;99.90;;;;;;5032832;28;20084;-49
2022/10/14 08:34:01;;;;;;;15.25;7.68;;;12.40;99.90;;;;;;5033190;28;20057;-51
2022/10/14 08:36:26;;;;;;;12.65;7.00;;;12.40;99.90;;;;;;5032712;28;20053;-53
2022/10/14 08:38:53;;;;;;;10.55;6.45;;;12.40;99.90;;;;;;5030756;28;20020;-54
2022/10/14 08:41:37;;;;;;;13.18;6.78;;;12.40;99.90;;;;;;5031192;28;20029;-50
2022/10/14 08:44:25;;;;;;;13.07;7.25;;;12.30;99.90;;;;;;5031288;28;20021;-53
2022/10/14 08:47:00;;;;;;;14.20;7.20;;;12.30;99.90;;;;;;5031494;28;20049;-57
2022/10/14 08:49:31;;;;;;;14.55;7.45;;;12.30;99.90;;;;;;5032750;28;20061;-49
2022/10/14 08:52:02;;;;;;;16.90;8.85;;;12.30;99.90;;;;;;5032570;28;20021;-49
2022/10/14 08:54:42;;;;;;;14.23;9.02;;;12.30;99.90;;;;;;5032178;28;20091;-48
2022/10/14 08:57:16;;;;;;;;;;;12.40;99.90;;;;;;5032798;28;20034;-51
2022/10/14 08:59:42;;;;;;;14.50;9.27;;;12.50;99.90;;;;;;5031477;28;19915;-48
2022/10/14 09:02:34;;;;;;;15.65;9.55;;;12.50;99.90;;;;;;5022768;28;20061;-52
2022/10/14 09:05:01;;;;;;;16.23;10.05;;;12.60;99.90;;;;;;5030822;28;20152;-48
2022/10/14 09:07:27;;;;;;;16.45;10.07;;;12.70;99.90;;;;;;5030963;28;20372;-50
2022/10/14 09:10:01;;;;;;;15.75;9.00;;;12.80;99.90;;;;;;5031884;28;20482;-54
2022/10/14 09:12:30;;;;;;;21.50;10.73;;;12.90;99.90;;;;;;5031520;28;20490;-47
2022/10/14 09:15:03;;;;;;;17.38;10.40;;;12.80;99.90;;;;;;5031437;28;20490;-52
2022/10/14 09:18:15;;;;;;;17.30;10.95;;;12.80;99.90;;;;;;5031211;28;20022;-56
2022/10/14 09:20:43;;;;;;;17.25;10.02;;;12.80;99.90;;;;;;4983294;28;20131;-41
2022/10/14 09:23:18;;;;;;;16.50;10.75;;;12.90;99.90;;;;;;5031723;28;20025;-54
2022/10/14 09:25:58;;;;;;;17.20;9.95;;;12.90;99.90;;;;;;5031686;28;20034;-49
2022/10/14 09:28:37;;;;;;;19.80;10.82;;;12.90;99.90;;;;;;5031969;28;20029;-49
2022/10/14 09:31:09;;;;;;;15.98;10.63;;;13.00;99.90;;;;;;5031749;28;20022;-51
2022/10/14 09:33:38;;;;;;;19.80;10.82;;;13.00;99.90;;;;;;5026647;28;20067;-45
2022/10/14 09:36:06;;;;;;;17.80;11.07;;;13.10;99.90;;;;;;5027461;28;20086;-51
2022/10/14 09:38:31;;;;;;;20.65;11.00;;;13.10;99.90;;;;;;5030854;28;20022;-46
2022/10/14 09:41:00;;;;;;;21.52;11.85;;;13.20;99.90;;;;;;5031450;28;20040;-51
2022/10/14 09:43:26;;;;;;;19.17;12.48;;;13.50;99.90;;;;;;5031637;28;20036;-51
2022/10/14 09:45:56;;;;;;;21.05;12.93;;;13.80;99.90;;;;;;5031704;28;20025;-49
2022/10/14 09:48:40;;;;;;;20.88;12.10;;;14.40;99.90;;;;;;5031253;28;20396;-51
2022/10/14 09:51:08;;;;;;;15.90;10.95;;;14.90;99.90;;;;;;5019914;28;20483;-47
2022/10/14 09:53:36;;;;;;;15.85;9.18;;;15.40;99.90;;;;;;5031167;28;20091;-46
2022/10/14 09:56:05;;;;;;;18.77;10.13;;;15.80;99.90;;;;;;5031624;28;20013;-47
2022/10/14 09:58:46;;;;;;;17.27;9.85;;;15.90;99.90;;;;;;5031403;28;20034;-47
2022/10/14 10:01:18;;;;;;;16.38;9.30;;;15.90;99.90;;;;;;5029555;28;20017;-50
2022/10/14 10:03:44;;;;;;;20.70;10.00;;;15.90;99.90;;;;;;5031172;28;20068;-51
2022/10/14 10:06:20;;;;;;;17.50;10.00;;;15.90;99.90;;;;;;5031318;28;20056;-53
2022/10/14 10:08:51;;;;;;;15.93;10.15;;;15.90;99.90;;;;;;5031176;28;20045;-48
2022/10/14 10:11:27;;;;;;;15.25;9.23;;;16.10;99.90;;;;;;5031175;28;20024;-52
2022/10/14 10:13:53;;;;;;;12.88;8.27;;;16.20;99.90;;;;;;5030998;28;20472;-47
2022/10/14 10:16:18;;;;;;;12.50;8.40;;;16.10;99.90;;;;;;5031110;28;20052;-49
2022/10/14 10:18:44;;;;;;;13.52;7.57;;;16.70;99.90;;;;;;5031053;28;20107;-50
2022/10/14 10:21:23;;;;;;;20.10;8.23;;;17.50;99.90;;;;;;5030987;28;20029;-50
2022/10/14 10:24:20;;;;;;;13.70;7.50;;;18.30;99.90;;;;;;5030986;28;20041;-55
2022/10/14 10:26:46;;;;;;;12.65;6.40;;;19.30;99.90;;;;;;5031155;28;20021;-49
2022/10/14 10:29:24;;;;;;;11.38;6.43;;;19.90;99.90;;;;;;5030820;28;20029;-52
2022/10/14 10:32:01;;;;;;;10.98;5.93;;;19.90;99.90;;;;;;5030807;28;20057;-51
2022/10/14 10:35:00;;;;;;;11.40;6.13;;;19.30;99.90;;;;;;5030676;28;20373;-50
2022/10/14 10:37:35;;;;;;;12.65;5.32;;;19.00;99.90;;;;;;5026396;28;20014;-51
2022/10/14 10:40:37;;;;;;;9.70;5.47;;;18.60;99.90;;;;;;5030656;28;20389;-53
2022/10/14 10:43:10;;;;;;;10.93;5.47;;;17.70;99.90;;;;;;5030840;28;20021;-54
2022/10/14 10:46:12;;;;;;;9.32;5.88;;;17.70;99.90;;;;;;5030549;28;20022;-51
2022/10/14 10:48:50;;;;;;;9.75;6.03;;;17.60;99.90;;;;;;5027981;28;20084;-49
2022/10/14 10:51:30;;;;;;;9.77;6.20;;;17.40;99.90;;;;;;5032409;28;20032;-47
2022/10/14 10:54:05;;;;;;;10.88;5.72;;;17.40;99.90;;;;;;5034035;28;20021;-46
2022/10/14 10:56:38;;;;;;;13.45;7.13;;;17.50;99.90;;;;;;5034501;28;20480;-47
2022/10/14 10:59:17;;;;;;;10.48;6.43;;;17.40;99.90;;;;;;5034920;28;20044;-52
2022/10/14 11:01:51;;;;;;;12.60;6.32;;;17.20;99.90;;;;;;5034707;28;20033;-46
2022/10/14 11:04:25;;;;;;;11.95;7.50;;;17.00;99.90;;;;;;5034434;28;20049;-47
2022/10/14 11:12:55;;;;;;;14.27;8.52;;;16.50;99.90;;;;;;5034094;28;20091;-47
2022/10/14 11:15:30;;;;;;;15.15;8.00;;;16.60;99.90;;;;;;5033704;28;20061;-50
2022/10/14 11:18:21;;;;;;;14.75;7.10;;;16.60;99.90;;;;;;5033536;28;20024;-56
2022/10/14 11:21:02;;;;;;;12.43;7.15;;;16.60;99.90;;;;;;5034074;28;20105;-49
2022/10/14 11:23:34;;;;;;;10.32;5.68;;;16.80;99.90;;;;;;5033925;28;20115;-47
2022/10/14 11:26:23;;;;;;;10.93;5.82;;;16.90;99.90;;;;;;5033832;28;20167;-51
2022/10/14 11:28:58;;;;;;;11.20;6.43;;;17.10;99.90;;;;;;5033171;28;20038;-51
2022/10/14 11:31:39;;;;;;;11.27;6.70;;;17.30;99.90;;;;;;5030978;28;20076;-46
2022/10/14 11:34:27;;;;;;;14.00;6.45;;;17.30;99.90;;;;;;5033087;28;20025;-50
2022/10/14 11:36:59;;;;;;;12.57;6.53;;;17.30;99.90;;;;;;5016940;28;20041;-52
2022/10/14 11:39:38;;;;;;;12.57;6.40;;;17.30;99.90;;;;;;5014949;28;20134;-54
2022/10/14 11:42:24;;;;;;;13.40;5.75;;;17.10;99.90;;;;;;5032927;28;20032;-55
2022/10/14 11:45:32;;;;;;;11.25;5.78;;;16.90;99.90;;;;;;5020557;28;20318;-50
2022/10/14 11:48:12;;;;;;;11.05;6.22;;;16.70;99.90;;;;;;5033016;28;20087;-50
2022/10/14 11:50:43;;;;;;;12.25;6.65;;;16.30;99.90;;;;;;5033478;28;20083;-53
2022/10/14 11:53:18;;;;;;;10.32;6.05;;;16.10;99.90;;;;;;5033646;28;20025;-53
2022/10/14 11:56:09;;;;;;;12.30;6.85;;;16.00;99.90;;;;;;5033148;28;20024;-49
2022/10/14 11:58:37;;;;;;;15.80;9.32;;;15.80;99.90;;;;;;5033206;28;20033;-53
2022/10/14 12:01:05;;;;;;;19.25;11.85;;;15.70;99.90;;;;;;5024754;28;20480;-49
2022/10/14 12:04:08;;;;;;;20.20;14.27;;;15.60;99.90;;;;;;5033449;28;20021;-51
2022/10/14 12:06:50;;;;;;;23.40;16.35;;;15.40;99.90;;;;;;5032234;28;20266;-54
2022/10/14 12:09:22;;;;;;;26.92;16.45;;;15.40;99.90;;;;;;5032787;28;20041;-48
2022/10/14 12:12:02;;;;;;;19.63;12.32;;;15.30;99.90;;;;;;5032749;28;20400;-49
2022/10/14 12:14:39;;;;;;;17.17;10.93;;;15.40;99.90;;;;;;5032468;28;20108;-47
2022/10/14 12:17:39;;;;;;;15.25;10.65;;;15.40;99.90;;;;;;5032521;28;20025;-49
2022/10/14 12:20:18;;;;;;;15.50;8.13;;;15.50;99.90;;;;;;4988546;28;20030;-50
2022/10/14 12:22:47;;;;;;;17.77;11.60;;;15.70;99.90;;;;;;5032380;28;20437;-50
2022/10/14 12:25:16;;;;;;;18.10;11.13;;;15.80;99.90;;;;;;5030387;28;20092;-49
2022/10/14 12:27:42;;;;;;;15.20;9.25;;;16.00;99.90;;;;;;5032456;28;20025;-55
2022/10/14 12:30:40;;;;;;;11.65;5.60;;;16.20;99.90;;;;;;5028251;28;20369;-49
2022/10/14 12:33:09;;;;;;;8.55;4.00;;;16.30;99.90;;;;;;5026941;28;20036;-51
2022/10/14 12:35:49;;;;;;;8.18;4.20;;;16.40;99.90;;;;;;5032376;28;20087;-49
2022/10/14 12:38:15;;;;;;;5.38;3.67;;;16.40;99.90;;;;;;5032344;28;20025;-49
2022/10/14 12:40:41;;;;;;;9.55;4.13;;;16.40;99.90;;;;;;5032291;28;20101;-50
2022/10/14 12:43:28;;;;;;;6.93;3.40;;;16.40;99.90;;;;;;5007335;28;20109;-49
2022/10/14 12:45:54;;;;;;;7.32;3.38;;;16.40;99.90;;;;;;5032084;28;20037;-51
2022/10/14 12:48:24;;;;;;;6.35;3.63;;;16.40;99.90;;;;;;5032452;28;20037;-49
2022/10/14 12:51:05;;;;;;;9.43;4.13;;;16.50;99.90;;;;;;5031965;28;20022;-45
2022/10/14 12:53:32;;;;;;;8.05;3.40;;;16.60;99.90;;;;;;5032553;28;20025;-45
2022/10/14 12:56:05;;;;;;;8.05;3.35;;;16.60;99.90;;;;;;5032565;28;20025;-46
2022/10/14 12:58:39;;;;;;;5.03;2.92;;;16.50;99.90;;;;;;5030490;28;20486;-46
2022/10/14 13:01:13;;;;;;;9.15;3.13;;;16.50;99.90;;;;;;5032047;28;20101;-45